Time;durP1;ratioP1;P1;durP2;ratioP2;P2;SDS_P1;SDS_P2;PMS_P1;PMS_P2;Temp;Humidity;BMP_temperature;BMP_pressure;BME280_temperature;BME280_humidity;BME280_pressure;Samples;Min_cycle;Max_cycle;Signal;HPM_P1;HPM_P2
2023/08/30 00:01:42;;;;;;;42.60;26.90;;;;;;;30.16;51.18;99483.70;107756;1260;60968;-69
2023/08/30 00:04:09;;;;;;;37.10;26.10;;;;;;;30.12;51.14;99487.06;107783;1256;59498;-69
2023/08/30 00:06:37;;;;;;;35.60;23.90;;;;;;;30.04;51.59;99485.84;107854;1256;73161;-66
2023/08/30 00:09:04;;;;;;;36.70;26.30;;;;;;;30.08;51.24;99487.33;107896;1256;70095;-67
2023/08/30 00:11:32;;;;;;;41.40;27.00;;;;;;;30.58;50.48;99485.86;107799;1257;72464;-66
2023/08/30 00:14:05;;;;;;;42.60;27.90;;;;;;;30.95;49.61;99489.38;107828;1256;62159;-68
2023/08/30 00:16:33;;;;;;;43.10;26.20;;;;;;;30.93;49.71;99488.45;107951;1257;59568;-68
2023/08/30 00:19:00;;;;;;;31.80;23.10;;;;;;;30.86;50.02;99485.58;107775;1256;73541;-66
2023/08/30 00:21:28;;;;;;;41.50;27.40;;;;;;;30.91;49.29;99489.69;107672;1257;70320;-67
2023/08/30 00:23:55;;;;;;;42.70;27.60;;;;;;;30.83;49.38;99489.90;107856;1256;72812;-68
2023/08/30 00:26:23;;;;;;;37.60;26.10;;;;;;;30.91;49.72;99489.27;107906;1256;60447;-67
2023/08/30 00:28:51;;;;;;;34.60;26.40;;;;;;;30.97;49.27;99486.91;107912;1257;62415;-67
2023/08/30 00:31:18;;;;;;;32.30;24.30;;;;;;;30.78;49.70;99488.70;107922;1259;71423;-67
2023/08/30 00:33:46;;;;;;;40.90;25.90;;;;;;;30.84;49.28;99487.16;107776;1257;69404;-67
2023/08/30 00:36:13;;;;;;;39.80;26.50;;;;;;;30.39;50.23;99493.85;107857;1257;71476;-67
2023/08/30 00:38:41;;;;;;;37.40;27.60;;;;;;;30.44;50.28;99492.38;107874;1256;62190;-67
2023/08/30 00:41:08;;;;;;;41.30;27.40;;;;;;;30.41;50.36;99500.08;107789;1257;59957;-68
2023/08/30 00:43:35;;;;;;;33.00;27.10;;;;;;;30.45;50.27;99504.79;107741;1257;71808;-67
2023/08/30 00:46:03;;;;;;;43.20;28.50;;;;;;;30.48;50.57;99504.55;107923;1260;70408;-68
2023/08/30 00:48:30;;;;;;;40.80;27.50;;;;;;;30.51;50.63;99508.12;107766;1256;71239;-67
2023/08/30 00:50:58;;;;;;;42.00;27.10;;;;;;;30.61;50.57;99509.20;107774;1258;60020;-68
2023/08/30 00:53:25;;;;;;;38.40;28.20;;;;;;;30.71;50.00;99506.70;107851;1256;59570;-68
2023/08/30 00:55:53;;;;;;;43.50;29.20;;;;;;;30.59;50.59;99502.60;108027;1256;73100;-66
2023/08/30 00:58:20;;;;;;;41.40;27.90;;;;;;;30.58;50.82;99500.33;107748;1257;68863;-66
2023/08/30 01:00:48;;;;;;;43.90;28.70;;;;;;;30.62;50.69;99501.59;107861;1256;73087;-66
2023/08/30 01:03:16;;;;;;;36.00;26.00;;;;;;;30.59;50.53;99505.36;107536;1256;61688;-65
2023/08/30 01:05:44;;;;;;;32.30;26.60;;;;;;;30.43;50.67;99506.61;107793;1256;60457;-65
2023/08/30 01:08:12;;;;;;;39.30;28.30;;;;;;;30.55;50.49;99509.81;107822;1255;72557;-68
2023/08/30 01:10:42;;;;;;;41.10;27.80;;;;;;;30.49;50.94;99513.09;107964;1257;70135;-67
2023/08/30 01:13:10;;;;;;;34.00;26.60;;;;;;;30.38;50.93;99514.77;107807;1258;71277;-66
2023/08/30 01:15:38;;;;;;;43.10;28.10;;;;;;;30.37;51.10;99514.34;107590;1257;61630;-66
2023/08/30 01:18:06;;;;;;;36.00;25.80;;;;;;;30.41;51.01;99518.42;107808;1256;60389;-66
2023/08/30 01:20:35;;;;;;;38.50;26.70;;;;;;;30.50;50.54;99515.77;107611;1256;72457;-67
2023/08/30 01:23:09;;;;;;;40.50;29.20;;;;;;;30.42;51.44;99517.48;107994;1259;70377;-68
2023/08/30 01:25:52;;;;;;;49.60;29.40;;;;;;;30.42;51.17;99513.46;107990;1254;72772;-67
2023/08/30 01:28:23;;;;;;;41.10;29.20;;;;;;;30.74;50.70;99511.81;108061;1254;62272;-67
2023/08/30 01:30:54;;;;;;;;;;;;;;;30.71;50.74;99515.61;108019;1254;59952;-66
2023/08/30 01:33:22;;;;;;;38.60;29.40;;;;;;;30.47;50.87;99514.95;107956;1254;73841;-68
2023/08/30 01:35:52;;;;;;;41.00;30.90;;;;;;;30.65;50.60;99514.77;107952;1254;70585;-66
2023/08/30 01:38:19;;;;;;;39.60;29.80;;;;;;;30.42;51.22;99516.81;107995;1256;72540;-67
2023/08/30 01:40:49;;;;;;;42.40;28.60;;;;;;;30.01;52.11;99521.07;107954;1254;61674;-67
2023/08/30 01:43:17;;;;;;;41.10;30.90;;;;;;;30.14;52.09;99522.94;107870;1254;60409;-67
2023/08/30 01:45:44;;;;;;;39.10;30.00;;;;;;;30.28;51.89;99516.17;107726;1254;73761;-67
2023/08/30 01:48:13;;;;;;;44.20;30.40;;;;;;;30.05;52.23;99523.71;107869;1259;69206;-67
2023/08/30 01:50:42;;;;;;;39.00;28.90;;;;;;;30.19;52.33;99517.48;107978;1254;72653;-67
2023/08/30 01:53:11;;;;;;;39.00;30.40;;;;;;;30.00;52.56;99515.50;107886;1254;61735;-66
2023/08/30 01:55:39;;;;;;;46.20;30.50;;;;;;;30.09;52.59;99516.48;107905;1259;60562;-67
2023/08/30 01:58:07;;;;;;;38.20;30.30;;;;;;;30.05;52.55;99519.34;107740;1254;72635;-66
2023/08/30 02:00:36;;;;;;;33.90;29.10;;;;;;;30.16;52.14;99514.25;107797;1254;69318;-66
2023/08/30 02:03:10;;;;;;;41.90;27.90;;;;;;;29.98;52.56;99518.41;107913;1256;71841;-68
2023/08/30 02:06:04;;;;;;;45.90;30.70;;;;;;;29.93;52.54;99514.73;107996;1256;61711;-67
2023/08/30 02:08:43;;;;;;;48.00;31.30;;;;;;;30.13;52.26;99513.22;107785;1254;60317;-66
2023/08/30 02:11:13;;;;;;;38.70;29.60;;;;;;;30.03;52.47;99512.77;107959;1254;72570;-68
2023/08/30 02:13:41;;;;;;;39.60;29.90;;;;;;;29.88;52.86;99516.50;107948;1257;68931;-68
2023/08/30 02:16:08;;;;;;;47.10;32.90;;;;;;;29.95;52.78;99515.98;107868;1257;72716;-67
2023/08/30 02:18:37;;;;;;;43.70;30.80;;;;;;;29.91;53.30;99512.77;107853;1254;61675;-68
2023/08/30 02:21:06;;;;;;;45.80;31.00;;;;;;;29.95;52.87;99511.36;107901;1254;61076;-66
2023/08/30 02:23:33;;;;;;;38.60;29.80;;;;;;;30.20;52.34;99512.65;108007;1254;76039;-66
2023/08/30 02:26:03;;;;;;;38.00;29.70;;;;;;;30.23;52.30;99512.70;107859;1260;70325;-68
2023/08/30 02:28:30;;;;;;;40.00;30.90;;;;;;;30.27;51.95;99513.06;107894;1256;73427;-68
2023/08/30 02:30:58;;;;;;;44.80;32.40;;;;;;;30.22;52.20;99510.29;107811;1255;60761;-68
2023/08/30 02:33:26;;;;;;;41.00;32.00;;;;;;;30.11;52.59;99514.28;107717;1256;59843;-67
2023/08/30 02:35:53;;;;;;;39.40;29.50;;;;;;;30.20;52.39;99516.45;107697;1255;73923;-67
2023/08/30 02:38:21;;;;;;;38.90;30.60;;;;;;;29.97;52.87;99511.47;107817;1256;70001;-68
2023/08/30 02:40:49;;;;;;;44.60;31.30;;;;;;;30.06;52.62;99508.53;107795;1257;72449;-69
2023/08/30 02:43:16;;;;;;;44.70;30.60;;;;;;;30.00;52.86;99507.73;107835;1256;60439;-69
2023/08/30 02:45:44;;;;;;;39.30;31.90;;;;;;;30.08;52.57;99503.61;107804;1256;60283;-68
2023/08/30 02:48:11;;;;;;;47.50;33.50;;;;;;;29.99;52.70;99505.43;107729;1256;73774;-68
2023/08/30 02:50:41;;;;;;;48.20;31.50;;;;;;;30.04;52.96;99505.92;107808;1256;69983;-68
2023/08/30 02:53:08;;;;;;;44.90;31.50;;;;;;;29.94;53.01;99508.65;107676;1257;72452;-69
2023/08/30 02:55:36;;;;;;;44.80;33.90;;;;;;;29.69;53.83;99509.83;107802;1256;61722;-69
2023/08/30 02:58:03;;;;;;;45.30;32.90;;;;;;;29.70;54.05;99507.48;107804;1256;60316;-67
2023/08/30 03:00:30;;;;;;;49.10;32.70;;;;;;;29.65;54.01;99506.90;107834;1259;73803;-68
2023/08/30 03:02:58;;;;;;;40.60;31.60;;;;;;;29.50;54.56;99506.80;107848;1256;70440;-69
2023/08/30 03:05:26;;;;;;;46.70;32.80;;;;;;;29.45;54.36;99510.09;107826;1256;73145;-67
2023/08/30 03:07:53;;;;;;;45.10;33.00;;;;;;;29.60;54.21;99508.64;107724;1256;62698;-67
2023/08/30 03:10:21;;;;;;;37.20;31.20;;;;;;;29.57;54.18;99510.08;107900;1256;59787;-68
2023/08/30 03:12:49;;;;;;;43.40;33.50;;;;;;;29.50;54.18;99510.93;107525;1265;74408;-66
2023/08/30 03:15:16;;;;;;;41.90;33.00;;;;;;;29.66;53.98;99512.73;107792;1255;68586;-68
2023/08/30 03:17:44;;;;;;;45.90;32.30;;;;;;;29.78;53.59;99512.62;107699;1256;71779;-68
2023/08/30 03:20:11;;;;;;;46.20;34.50;;;;;;;29.84;53.25;99510.12;107725;1256;61689;-66
2023/08/30 03:22:39;;;;;;;41.10;31.10;;;;;;;29.88;53.27;99509.43;107708;1256;60032;-68
2023/08/30 03:25:09;;;;;;;43.80;33.90;;;;;;;29.83;53.27;99512.63;107819;1256;73837;-67
2023/08/30 03:27:39;;;;;;;41.40;32.50;;;;;;;29.85;53.54;99510.64;107811;1260;70256;-68
2023/08/30 03:30:07;;;;;;;40.50;31.00;;;;;;;29.76;53.60;99511.48;107766;1256;72497;-67
2023/08/30 03:32:35;;;;;;;41.90;32.20;;;;;;;29.80;53.44;99511.05;107658;1262;60428;-68
2023/08/30 03:35:03;;;;;;;41.50;33.40;;;;;;;29.49;54.39;99508.52;107739;1255;60490;-67
2023/08/30 03:37:32;;;;;;;41.50;32.50;;;;;;;29.52;54.28;99506.16;107849;1256;74471;-67
2023/08/30 03:40:01;;;;;;;48.00;33.90;;;;;;;29.61;54.21;99505.61;107867;1256;68484;-67
2023/08/30 03:42:29;;;;;;;42.10;31.20;;;;;;;29.46;54.45;99508.52;107820;1255;71982;-68
2023/08/30 03:44:56;;;;;;;45.60;34.00;;;;;;;29.50;54.50;99508.43;107693;1256;61636;-68
2023/08/30 03:47:23;;;;;;;43.00;30.90;;;;;;;29.73;53.79;99509.27;107839;1256;60335;-67
2023/08/30 03:49:51;;;;;;;44.70;33.00;;;;;;;29.85;53.47;99510.88;107774;1256;73069;-67
2023/08/30 03:52:18;;;;;;;44.60;34.30;;;;;;;29.81;53.75;99510.30;107740;1256;70419;-68
2023/08/30 03:54:46;;;;;;;46.80;33.20;;;;;;;29.91;53.33;99507.01;107580;1263;72781;-67
2023/08/30 03:57:13;;;;;;;44.50;33.30;;;;;;;29.87;53.23;99510.02;107816;1256;60422;-67
2023/08/30 03:59:41;;;;;;;40.80;33.50;;;;;;;29.70;53.74;99505.66;107837;1256;60431;-67
2023/08/30 04:02:08;;;;;;;40.60;31.90;;;;;;;29.69;53.83;99507.86;107826;1260;73971;-68
2023/08/30 04:04:36;;;;;;;42.30;32.40;;;;;;;29.68;53.67;99506.31;107705;1257;70114;-68
2023/08/30 04:07:04;;;;;;;36.80;30.70;;;;;;;29.75;53.67;99504.67;107761;1257;72682;-68
2023/08/30 04:09:33;;;;;;;44.90;31.70;;;;;;;29.82;53.47;99502.77;107797;1256;61007;-68
2023/08/30 04:12:00;;;;;;;44.90;33.60;;;;;;;30.04;53.09;99504.13;107807;1256;60208;-68
2023/08/30 04:14:27;;;;;;;47.00;33.20;;;;;;;30.06;52.80;99503.64;107804;1256;73837;-68
2023/08/30 04:16:57;;;;;;;47.50;33.10;;;;;;;30.01;53.10;99502.19;107796;1259;68916;-68
2023/08/30 04:19:24;;;;;;;48.50;32.70;;;;;;;30.15;53.21;99504.33;107784;1256;72769;-68
2023/08/30 04:21:51;;;;;;;46.10;33.00;;;;;;;30.31;52.54;99499.90;107867;1256;60457;-68
2023/08/30 04:24:19;;;;;;;47.90;34.50;;;;;;;30.40;51.90;99500.29;107821;1256;60300;-68
2023/08/30 04:26:51;;;;;;;35.20;29.10;;;;;;;30.18;52.41;99499.21;107807;1260;73031;-68
2023/08/30 04:29:18;;;;;;;43.40;33.10;;;;;;;30.11;52.51;99496.31;107923;1254;68710;-71
2023/08/30 04:31:46;;;;;;;40.40;31.60;;;;;;;30.06;52.64;99498.64;107918;1254;71375;-68
2023/08/30 04:34:15;;;;;;;41.00;30.70;;;;;;;29.98;53.01;99501.49;107841;1257;60778;-67
2023/08/30 04:36:43;;;;;;;41.60;31.60;;;;;;;30.26;52.17;99503.45;107961;1254;60309;-68
2023/08/30 04:39:13;;;;;;;39.40;29.00;;;;;;;30.25;52.42;99502.98;107977;1254;72225;-68
2023/08/30 04:41:41;;;;;;;37.80;30.10;;;;;;;30.12;52.65;99507.23;107834;1254;70696;-67
2023/08/30 04:44:09;;;;;;;45.00;30.80;;;;;;;30.29;51.92;99509.20;107798;1256;72684;-68
2023/08/30 04:46:37;;;;;;;37.70;28.90;;;;;;;30.23;52.33;99509.31;107930;1254;60437;-68
2023/08/30 04:49:04;;;;;;;41.80;29.60;;;;;;;30.08;52.60;99509.21;107766;1254;59955;-67
2023/08/30 04:51:32;;;;;;;40.40;31.00;;;;;;;30.01;52.56;99509.56;107895;1259;73753;-68
2023/08/30 04:54:00;;;;;;;40.60;30.00;;;;;;;29.64;53.71;99508.47;107973;1254;69999;-69
2023/08/30 04:56:27;;;;;;;42.30;29.00;;;;;;;29.60;53.74;99507.64;107840;1255;72681;-68
2023/08/30 04:58:57;;;;;;;42.10;30.60;;;;;;;29.96;53.23;99509.08;107862;1254;60873;-68
2023/08/30 05:01:24;;;;;;;39.40;29.00;;;;;;;29.93;53.10;99505.84;107951;1254;60273;-69
2023/08/30 05:03:54;;;;;;;40.10;29.50;;;;;;;29.67;53.74;99507.33;107828;1254;73936;-68
2023/08/30 05:06:23;;;;;;;45.40;30.60;;;;;;;29.46;54.43;99513.65;108033;1254;69072;-69
2023/08/30 05:08:50;;;;;;;40.90;31.00;;;;;;;30.13;52.81;99509.41;108080;1253;72447;-68
2023/08/30 05:11:18;;;;;;;45.60;31.00;;;;;;;30.56;51.82;99506.81;108071;1259;61799;-68
2023/08/30 05:13:46;;;;;;;39.20;30.20;;;;;;;30.64;51.32;99506.12;108060;1253;60143;-68
2023/08/30 05:16:13;;;;;;;43.20;29.20;;;;;;;30.95;50.46;99505.66;107950;1253;73812;-68
2023/08/30 05:18:41;;;;;;;39.50;29.90;;;;;;;31.03;50.27;99507.27;108079;1253;69759;-67
2023/08/30 05:21:08;;;;;;;42.60;29.60;;;;;;;31.07;50.05;99509.60;108605;1253;72463;-67
2023/08/30 05:23:35;;;;;;;34.70;27.10;;;;;;;30.85;50.65;99510.07;108605;1253;60381;-68
2023/08/30 05:26:09;;;;;;;39.00;29.20;;;;;;;30.66;51.19;99508.48;108349;1253;59986;-68
2023/08/30 05:28:36;;;;;;;41.80;28.90;;;;;;;31.18;49.96;99512.39;107966;1253;74134;-68
2023/08/30 05:31:05;;;;;;;37.80;25.90;;;;;;;31.54;49.36;99510.05;108000;1253;70105;-68
2023/08/30 05:33:54;;;;;;;39.00;27.30;;;;;;;31.71;48.83;99510.48;108085;1253;71352;-67
2023/08/30 05:36:31;;;;;;;35.70;23.60;;;;;;;31.66;48.75;99512.12;108105;1257;62187;-67
2023/08/30 05:39:17;;;;;;;36.80;24.00;;;;;;;32.30;47.29;99514.61;108001;1253;60342;-68
2023/08/30 05:41:51;;;;;;;31.60;26.00;;;;;;;32.87;46.23;99516.84;108058;1253;73878;-69
2023/08/30 05:44:21;;;;;;;28.40;23.70;;;;;;;33.49;44.76;99515.25;107966;1260;72742;-68
2023/08/30 05:46:48;;;;;;;29.60;22.00;;;;;;;34.02;43.59;99513.18;107877;1254;62468;-70
2023/08/30 05:49:15;;;;;;;28.20;22.60;;;;;;;34.56;42.22;99504.04;107839;1256;60413;-68
2023/08/30 05:51:44;;;;;;;31.00;22.70;;;;;;;34.84;41.52;99496.45;107962;1253;60595;-69
2023/08/30 05:54:13;;;;;;;35.60;21.60;;;;;;;35.38;40.38;99498.60;108019;1256;64976;-70
2023/08/30 05:56:41;;;;;;;29.20;20.40;;;;;;;35.67;39.49;99496.27;107865;1253;61331;-69
2023/08/30 05:59:09;;;;;;;24.30;20.80;;;;;;;36.10;38.60;99495.40;107951;1253;62509;-69
2023/08/30 06:01:36;;;;;;;32.20;20.90;;;;;;;36.38;37.78;99497.83;107997;1255;60434;-69
2023/08/30 06:04:04;;;;;;;28.00;19.40;;;;;;;36.62;37.09;99498.56;108049;1253;60556;-69
2023/08/30 06:06:32;;;;;;;22.60;18.60;;;;;;;37.16;36.69;99498.48;108069;1253;63677;-69
2023/08/30 06:08:59;;;;;;;26.50;19.00;;;;;;;37.43;35.93;99500.19;107997;1253;60080;-69
2023/08/30 06:11:27;;;;;;;25.70;18.70;;;;;;;37.75;35.39;99498.70;108021;1256;63035;-69
2023/08/30 06:13:54;;;;;;;25.00;17.80;;;;;;;38.10;35.11;99498.97;108008;1255;59544;-69
2023/08/30 06:16:22;;;;;;;24.50;18.40;;;;;;;38.70;33.90;99497.04;107990;1253;60303;-68
2023/08/30 06:18:49;;;;;;;27.60;17.70;;;;;;;39.20;32.92;99495.30;108003;1254;65086;-69
2023/08/30 06:21:17;;;;;;;22.90;16.40;;;;;;;39.52;32.58;99497.54;108024;1253;61360;-70
2023/08/30 06:23:45;;;;;;;20.50;15.40;;;;;;;39.81;31.72;99498.77;108032;1255;63822;-68
2023/08/30 06:26:12;;;;;;;22.80;15.90;;;;;;;39.59;31.79;99497.92;108007;1253;60450;-69
2023/08/30 06:28:40;;;;;;;23.20;15.50;;;;;;;39.27;31.74;99498.95;108020;1257;60625;-69
2023/08/30 06:31:09;;;;;;;25.30;14.60;;;;;;;39.09;32.06;99498.71;108032;1254;65221;-69
2023/08/30 06:33:37;;;;;;;21.50;13.80;;;;;;;39.00;32.26;99498.46;108038;1253;60341;-69
2023/08/30 06:36:05;;;;;;;20.60;14.10;;;;;;;38.79;32.31;99501.89;108001;1253;63713;-69
2023/08/30 06:38:32;;;;;;;25.20;15.00;;;;;;;38.75;32.65;99503.76;108081;1253;58982;-68
2023/08/30 06:41:00;;;;;;;21.50;14.70;;;;;;;39.09;32.23;99501.67;108029;1253;62359;-69
2023/08/30 06:43:27;;;;;;;16.00;13.20;;;;;;;39.38;31.49;99503.70;108041;1254;63708;-69
2023/08/30 06:45:58;;;;;;;17.50;13.70;;;;;;;39.16;31.29;99501.52;107987;1253;61351;-69
2023/08/30 06:48:25;;;;;;;25.40;15.20;;;;;;;38.68;31.85;99504.89;108042;1253;63793;-68
2023/08/30 06:50:57;;;;;;;22.40;14.00;;;;;;;38.53;32.12;99512.72;108032;1254;60983;-68
2023/08/30 06:53:27;;;;;;;19.70;13.70;;;;;;;38.25;32.37;99514.09;108033;1253;60603;-68
2023/08/30 06:56:01;;;;;;;;;;;;;;;37.96;32.72;99515.73;108055;1253;64957;-68
2023/08/30 06:58:28;;;;;;;25.80;15.20;;;;;;;37.93;33.04;99521.79;108041;1253;60524;-67
2023/08/30 07:00:59;;;;;;;26.20;15.50;;;;;;;37.88;33.24;99520.66;108069;1258;62435;-67
2023/08/30 07:03:26;;;;;;;;;;;;;;;37.69;33.53;99515.97;108028;1253;60724;-70
2023/08/30 07:05:54;;;;;;;22.90;14.70;;;;;;;37.68;33.36;99518.70;107972;1253;60153;-66
2023/08/30 07:08:21;;;;;;;29.00;14.00;;;;;;;37.77;33.22;99519.67;108016;1253;65561;-67
2023/08/30 07:10:49;;;;;;;23.10;15.30;;;;;;;37.73;33.37;99521.92;108089;1253;61889;-68
2023/08/30 07:13:16;;;;;;;22.80;14.20;;;;;;;37.92;33.13;99515.84;108083;1254;62562;-69
2023/08/30 07:15:44;;;;;;;17.10;13.10;;;;;;;37.95;32.83;99520.13;108029;1253;60465;-68
2023/08/30 07:18:11;;;;;;;17.20;12.80;;;;;;;37.99;32.72;99519.80;107990;1253;60332;-68
2023/08/30 07:20:39;;;;;;;19.80;10.60;;;;;;;38.03;31.72;99524.83;108024;1253;65491;-68
2023/08/30 07:23:07;;;;;;;16.20;10.40;;;;;;;37.99;31.02;99521.86;108021;1253;61730;-68
2023/08/30 07:25:37;;;;;;;;;;;;;;;37.92;30.82;99517.34;108042;1257;74711;-67
2023/08/30 07:28:05;;;;;;;15.50;10.30;;;;;;;37.90;30.59;99521.31;108022;1253;60431;-69
2023/08/30 07:30:37;;;;;;;17.20;11.30;;;;;;;37.97;30.52;99519.46;107928;1253;60127;-69
2023/08/30 07:33:05;;;;;;;21.20;11.40;;;;;;;38.17;30.90;99520.57;108045;1253;63702;-68
2023/08/30 07:35:33;;;;;;;16.30;10.50;;;;;;;38.17;30.61;99519.54;108056;1258;60545;-69
2023/08/30 07:38:00;;;;;;;16.60;9.50;;;;;;;38.13;29.88;99521.23;107981;1253;63755;-69
2023/08/30 07:40:28;;;;;;;17.40;10.10;;;;;;;38.40;29.98;99519.27;108022;1256;60417;-69
2023/08/30 07:42:56;;;;;;;14.40;9.60;;;;;;;38.39;29.96;99514.45;108021;1254;60351;-68
2023/08/30 07:45:26;;;;;;;26.20;13.40;;;;;;;38.53;30.45;99510.20;108006;1253;64967;-69
2023/08/30 07:47:54;;;;;;;21.10;12.80;;;;;;;38.70;30.94;99506.61;108080;1253;61421;-69
2023/08/30 07:50:22;;;;;;;15.30;12.20;;;;;;;38.89;30.73;99503.27;107996;1253;63779;-69
2023/08/30 07:52:49;;;;;;;17.00;10.70;;;;;;;39.04;30.67;99501.48;108056;1253;60465;-69
2023/08/30 07:55:16;;;;;;;12.30;10.00;;;;;;;39.20;29.94;99505.21;108043;1253;60418;-69
2023/08/30 07:57:44;;;;;;;22.10;10.10;;;;;;;39.21;29.28;99502.96;108050;1254;63666;-70
2023/08/30 08:00:12;;;;;;;18.10;10.40;;;;;;;39.26;29.48;99501.36;108046;1253;61306;-68
2023/08/30 08:02:40;;;;;;;15.80;9.60;;;;;;;39.28;29.24;99502.27;108060;1253;63713;-70
2023/08/30 08:05:08;;;;;;;22.20;9.40;;;;;;;39.18;28.96;99502.71;108060;1253;60285;-69
2023/08/30 08:07:38;;;;;;;17.60;9.40;;;;;;;39.40;28.78;99500.30;108036;1253;60478;-69
2023/08/30 08:10:06;;;;;;;14.50;9.10;;;;;;;39.66;28.59;99499.31;108016;1253;65060;-69
2023/08/30 08:12:33;;;;;;;13.20;8.90;;;;;;;39.77;28.26;99496.32;108061;1253;60377;-70
2023/08/30 08:15:02;;;;;;;15.10;9.30;;;;;;;39.57;28.32;99500.77;108037;1253;63691;-67
2023/08/30 08:17:31;;;;;;;17.80;9.10;;;;;;;39.49;28.47;99498.07;107958;1253;60326;-69
2023/08/30 08:19:59;;;;;;;19.40;8.70;;;;;;;39.72;28.29;99498.98;107937;1256;59170;-68
2023/08/30 08:22:26;;;;;;;22.70;10.10;;;;;;;39.87;27.93;99498.55;108034;1253;64915;-69
2023/08/30 08:24:56;;;;;;;16.30;9.80;;;;;;;39.77;28.02;99501.33;107974;1259;61505;-69
2023/08/30 08:27:26;;;;;;;16.20;9.30;;;;;;;39.69;28.14;99498.17;107969;1256;63830;-70
2023/08/30 08:29:54;;;;;;;;;;;;;;;39.55;28.26;99500.05;107879;1256;60510;-69
2023/08/30 08:32:22;;;;;;;22.00;10.60;;;;;;;39.42;28.45;99499.98;107904;1256;59198;-69
2023/08/30 08:34:50;;;;;;;21.20;10.40;;;;;;;39.48;28.67;99498.94;107886;1255;64972;-69
2023/08/30 08:37:17;;;;;;;17.30;10.40;;;;;;;39.68;28.78;99497.44;107943;1256;61391;-69
2023/08/30 08:39:46;;;;;;;22.70;10.40;;;;;;;39.74;28.78;99500.02;107926;1256;63807;-69
2023/08/30 08:42:17;;;;;;;21.30;11.70;;;;;;;39.59;28.87;99498.04;107855;1256;60337;-68
2023/08/30 08:44:50;;;;;;;24.80;11.20;;;;;;;39.53;29.20;99497.27;107859;1260;60563;-69
2023/08/30 08:47:19;;;;;;;14.50;10.20;;;;;;;39.50;29.07;99496.70;107907;1257;64993;-69
2023/08/30 08:49:50;;;;;;;17.20;12.20;;;;;;;39.49;29.12;99498.02;107918;1256;61371;-70
2023/08/30 08:52:18;;;;;;;22.50;12.30;;;;;;;39.49;29.22;99499.06;107949;1256;62990;-69
2023/08/30 08:55:02;;;;;;;20.30;12.10;;;;;;;39.47;29.32;99493.59;107813;1256;60425;-69
2023/08/30 08:57:33;;;;;;;21.60;11.30;;;;;;;39.36;29.36;99493.15;107901;1255;60329;-69
2023/08/30 09:00:01;;;;;;;23.40;12.50;;;;;;;39.36;29.35;99494.36;107799;1257;64114;-69
2023/08/30 09:02:29;;;;;;;16.70;9.90;;;;;;;39.52;29.38;99491.60;107866;1256;72259;-69
2023/08/30 09:05:00;;;;;;;23.70;11.40;;;;;;;39.73;28.89;99489.67;107878;1256;62455;-68
2023/08/30 09:07:29;;;;;;;19.80;10.30;;;;;;;39.95;28.37;99482.12;107579;1256;181630;-69
2023/08/30 09:11:06;;;;;;;27.10;9.70;;;;;;;38.86;29.78;99478.46;104866;1290;601409;-69
2023/08/30 09:13:33;;;;;;;18.60;9.60;;;;;;;40.01;27.51;99475.75;107333;1264;59546;-69
2023/08/30 09:16:02;;;;;;;20.30;9.80;;;;;;;40.29;26.94;99475.65;107365;1264;57917;-69
2023/08/30 09:18:30;;;;;;;29.00;10.10;;;;;;;40.07;27.06;99477.89;107354;1263;62015;-69
2023/08/30 09:21:08;;;;;;;16.10;9.20;;;;;;;40.54;26.75;99480.17;107284;1264;60137;-69
2023/08/30 09:23:38;;;;;;;18.50;9.80;;;;;;;40.63;26.53;99477.89;107009;1269;395709;-70
2023/08/30 09:26:06;;;;;;;24.60;10.50;;;;;;;40.57;26.31;99473.35;107368;1263;59241;-69
2023/08/30 09:28:41;;;;;;;19.40;9.80;;;;;;;40.56;26.46;99470.48;107312;1264;59096;-70
2023/08/30 09:31:20;;;;;;;13.40;9.20;;;;;;;40.45;26.30;99471.27;107446;1263;62780;-69
2023/08/30 09:33:49;;;;;;;27.40;10.10;;;;;;;40.23;26.66;99475.39;107326;1264;60252;-68
2023/08/30 09:36:17;;;;;;;29.90;10.10;;;;;;;40.04;26.86;99466.95;107538;1263;66081;-71
2023/08/30 09:38:48;;;;;;;15.20;9.20;;;;;;;40.41;26.72;99460.04;107362;1264;59471;-68
2023/08/30 09:41:16;;;;;;;14.20;8.90;;;;;;;40.77;26.18;99458.20;107442;1263;59596;-69
2023/08/30 09:43:43;;;;;;;14.90;8.90;;;;;;;41.13;26.28;99455.91;107421;1269;66605;-69
2023/08/30 09:46:11;;;;;;;18.00;8.90;;;;;;;41.40;25.38;99461.35;107401;1263;60234;-69
2023/08/30 09:48:40;;;;;;;17.30;8.90;;;;;;;41.31;24.86;99458.48;107438;1263;73662;-68
2023/08/30 09:51:07;;;;;;;19.10;8.30;;;;;;;41.42;24.67;99461.14;107353;1267;59535;-70
2023/08/30 09:53:40;;;;;;;16.80;7.90;;;;;;;41.50;24.09;99466.55;107411;1263;59595;-69
2023/08/30 09:56:28;;;;;;;30.00;8.30;;;;;;;41.16;23.69;99463.96;107379;1263;64241;-69
2023/08/30 09:58:59;;;;;;;17.10;9.60;;;;;;;40.58;23.92;99455.30;107508;1260;62323;-70
2023/08/30 10:01:27;;;;;;;25.80;8.70;;;;;;;40.59;24.58;99448.19;107541;1260;63914;-68
2023/08/30 10:03:55;;;;;;;18.60;8.70;;;;;;;40.83;24.42;99448.88;107473;1261;59615;-69
2023/08/30 10:06:24;;;;;;;14.50;8.60;;;;;;;40.98;24.30;99444.72;107391;1260;62334;-69
2023/08/30 10:08:51;;;;;;;24.50;9.40;;;;;;;40.67;24.82;99443.09;107516;1260;64172;-70
2023/08/30 10:11:19;;;;;;;16.40;9.50;;;;;;;40.57;25.47;99447.70;107481;1260;60951;-69
2023/08/30 10:13:46;;;;;;;18.70;9.90;;;;;;;40.85;25.27;99447.59;107479;1260;62456;-69
2023/08/30 10:16:18;;;;;;;19.90;9.30;;;;;;;40.97;25.38;99446.04;107393;1260;59583;-69
2023/08/30 10:18:51;;;;;;;14.90;9.50;;;;;;;40.95;25.47;99440.25;107612;1260;59237;-69
2023/08/30 10:21:35;;;;;;;18.70;9.80;;;;;;;41.04;25.12;99439.16;108125;1253;62922;-69
2023/08/30 10:24:03;;;;;;;;;;;;;;;41.10;24.99;99442.70;108077;1254;61327;-69
2023/08/30 10:26:44;;;;;;;11.60;9.00;;;;;;;40.91;24.97;99438.90;107950;1254;64365;-70
2023/08/30 10:29:12;;;;;;;17.20;8.70;;;;;;;40.76;25.13;99441.86;107971;1256;59638;-70
2023/08/30 10:31:40;;;;;;;21.40;10.00;;;;;;;40.68;25.61;99441.34;107798;1254;58211;-69
2023/08/30 10:34:15;;;;;;;21.70;9.30;;;;;;;40.69;25.93;99439.63;107811;1254;62929;-69
2023/08/30 10:36:43;;;;;;;20.60;10.50;;;;;;;40.68;25.90;99433.23;108025;1255;62011;-69
2023/08/30 10:39:12;;;;;;;20.40;9.10;;;;;;;40.38;25.97;99429.14;107981;1254;62593;-68
2023/08/30 10:41:56;;;;;;;19.30;9.70;;;;;;;40.77;25.91;99426.00;107943;1255;59625;-68
2023/08/30 10:44:23;;;;;;;19.70;9.80;;;;;;;41.29;25.18;99418.98;108031;1254;59524;-68
2023/08/30 10:46:54;;;;;;;22.40;9.40;;;;;;;41.46;24.84;99415.60;108022;1253;64165;-68
2023/08/30 10:49:23;;;;;;;14.80;8.90;;;;;;;41.89;24.62;99414.16;108071;1254;61395;-68
2023/08/30 10:51:57;;;;;;;27.90;8.80;;;;;;;42.05;24.32;99412.96;107974;1256;62463;-69
2023/08/30 10:54:25;;;;;;;16.00;9.10;;;;;;;41.79;24.47;99415.73;107965;1254;59599;-69
2023/08/30 10:56:57;;;;;;;22.80;9.20;;;;;;;41.80;24.59;99405.61;107999;1253;59539;-69
2023/08/30 10:59:24;;;;;;;14.70;8.70;;;;;;;41.73;24.34;99396.55;107994;1254;64608;-69
2023/08/30 11:01:52;;;;;;;19.40;8.90;;;;;;;41.63;24.46;99389.77;107984;1254;61398;-69
2023/08/30 11:04:20;;;;;;;14.20;8.00;;;;;;;41.64;24.42;99392.04;108023;1256;63793;-70
2023/08/30 11:06:49;;;;;;;21.40;9.20;;;;;;;41.74;24.21;99390.63;108001;1254;59693;-70
2023/08/30 11:09:20;;;;;;;24.40;9.20;;;;;;;41.69;24.10;99384.77;108008;1254;59712;-69
2023/08/30 11:11:47;;;;;;;24.40;9.40;;;;;;;41.64;23.98;99380.04;108046;1254;64236;-70
2023/08/30 11:14:16;;;;;;;12.30;8.80;;;;;;;41.85;23.95;99371.69;108068;1254;60140;-69
2023/08/30 11:16:43;;;;;;;23.50;9.10;;;;;;;41.96;23.84;99372.00;108046;1255;63691;-69
2023/08/30 11:19:12;;;;;;;22.60;8.80;;;;;;;41.91;23.74;99369.37;108064;1255;59223;-70
2023/08/30 11:21:44;;;;;;;19.80;8.80;;;;;;;41.54;23.85;99374.91;108092;1254;59823;-69